North Albemarle, North Carolina
Current Conditions -  °F | °C
As of 3:35 PM on Monday 26 Jan 2015 (Local Time) from KVUJ Reporting Station
Moderate Rain Moderate Rain  
Wind Chill: 46°   Ceiling: 5000
Heat Index: 46°   Visibility: 10mi
Dew Point: 41°   Wind: 0mph
Humidity: 81%   Direction: NA
Pressure: 29.66"   Gusts: NA
Location:  35.3503°N, 80.2174°W
Report Text: KVUJ 262035Z AUTO 00000KT 10SM RA SCT043 BKN050 OVC065 08/05 A2966 RMK AO2 T00790049
Loading
Personal Weather Stations






























Interactive Weather Map New forecast layout! Learn more

10-Day Weather Forecast

Advertisements
Track Severe Weather on mobile